createdAt,value
2022-08-19T00:02:19.534Z,77.28
2022-08-19T00:05:23.149Z,76.70
2022-08-19T00:08:25.583Z,75.05
2022-08-19T00:11:28.950Z,75.92
2022-08-19T00:14:32.524Z,76.11
2022-08-19T00:17:35.186Z,75.54
2022-08-19T00:20:41.428Z,74.57
2022-08-19T00:23:44.208Z,74.92
2022-08-19T00:26:46.770Z,75.15
2022-08-19T00:29:52.639Z,72.27
2022-08-19T00:32:58.465Z,72.06
2022-08-19T00:36:02.269Z,76.33
2022-08-19T00:39:05.073Z,76.48
2022-08-19T00:42:07.537Z,76.16
2022-08-19T00:45:14.075Z,76.39
2022-08-19T00:48:17.501Z,76.52
2022-08-19T00:51:20.045Z,77.25
2022-08-19T00:54:28.262Z,76.29
2022-08-19T00:57:41.263Z,75.70
2022-08-19T01:00:43.757Z,76.59
2022-08-19T01:03:58.014Z,77.61
2022-08-19T01:07:02.735Z,74.65
2022-08-19T01:10:10.367Z,73.62
2022-08-19T01:13:16.109Z,74.84
2022-08-19T01:16:21.669Z,76.70
2022-08-19T01:19:43.746Z,77.20
2022-08-19T01:22:53.405Z,76.96
2022-08-19T01:25:56.834Z,76.97
2022-08-19T01:29:02.210Z,79.60
2022-08-19T01:32:32.418Z,79.36
2022-08-19T01:35:36.795Z,79.09
2022-08-19T01:38:44.186Z,79.55
2022-08-19T01:41:49.011Z,79.71
2022-08-19T01:44:51.387Z,79.02
2022-08-19T01:48:01.185Z,78.91
2022-08-19T01:51:04.287Z,77.73
2022-08-19T01:54:06.866Z,76.94
2022-08-19T01:57:13.590Z,76.96
2022-08-19T02:00:18.524Z,77.60
2022-08-19T02:03:20.864Z,77.36
2022-08-19T02:06:26.982Z,77.95
2022-08-19T02:09:29.536Z,78.19
2022-08-19T02:12:32.058Z,78.14
2022-08-19T02:15:34.456Z,77.77
2022-08-19T02:18:36.977Z,78.44
2022-08-19T02:21:39.324Z,78.16
2022-08-19T02:24:41.821Z,78.51
2022-08-19T02:27:44.196Z,78.63
2022-08-19T02:30:48.297Z,79.01
2022-08-19T02:33:51.509Z,78.18
2022-08-19T02:36:53.990Z,77.07
2022-08-19T02:39:56.606Z,76.66
2022-08-19T02:42:59.130Z,76.65
2022-08-19T02:46:01.988Z,77.43
2022-08-19T02:49:08.262Z,77.68
2022-08-19T02:52:12.140Z,77.80
2022-08-19T02:55:14.728Z,76.91
2022-08-19T02:58:17.671Z,72.85
2022-08-19T03:01:30.653Z,68.88
2022-08-19T03:04:33.041Z,66.63
2022-08-19T03:07:35.483Z,67.43
2022-08-19T03:10:48.138Z,67.26
2022-08-19T03:13:51.866Z,67.54
2022-08-19T03:16:54.272Z,66.24
2022-08-19T03:19:56.749Z,64.93
2022-08-19T03:22:59.086Z,65.04
2022-08-19T03:26:16.662Z,64.70
2022-08-19T03:29:30.852Z,69.72
2022-08-19T03:32:34.537Z,70.50
2022-08-19T03:35:39.884Z,70.41
2022-08-19T03:38:49.431Z,70.04
2022-08-19T03:42:32.707Z,69.72
2022-08-19T03:45:24.196Z,70.03
2022-08-19T03:48:26.669Z,71.87
2022-08-19T03:51:35.903Z,70.41
2022-08-19T03:54:39.490Z,70.88
2022-08-19T03:57:42.043Z,72.03
2022-08-19T04:00:44.551Z,73.60
2022-08-19T04:03:47.741Z,74.01
2022-08-19T04:06:51.731Z,74.54
2022-08-19T04:09:54.363Z,74.60
2022-08-19T04:12:56.752Z,74.33
2022-08-19T04:15:59.158Z,76.04
2022-08-19T04:19:04.353Z,76.51
2022-08-19T04:22:08.218Z,77.66
2022-08-19T04:25:11.199Z,79.69
2022-08-19T04:28:14.472Z,78.20
2022-08-19T04:31:27.071Z,76.05
2022-08-19T04:34:30.618Z,74.98
2022-08-19T04:37:35.314Z,72.69
2022-08-19T04:41:01.215Z,72.48
2022-08-19T04:44:04.561Z,72.76
2022-08-19T04:47:11.342Z,73.29
2022-08-19T04:50:14.064Z,73.52
2022-08-19T04:53:16.443Z,73.15
2022-08-19T04:56:23.586Z,73.58
2022-08-19T04:59:26.188Z,73.95
2022-08-19T05:02:28.651Z,72.96
2022-08-19T05:05:32.196Z,72.38
2022-08-19T05:08:48.425Z,71.19
2022-08-19T05:11:54.532Z,71.14
2022-08-19T05:14:58.601Z,71.26
2022-08-19T05:18:19.536Z,70.06
2022-08-19T05:21:42.040Z,70.32
2022-08-19T05:25:09.410Z,70.85
2022-08-19T05:28:06.792Z,70.91
2022-08-19T05:31:09.215Z,70.60
2022-08-19T05:34:20.087Z,70.40
2022-08-19T05:37:23.306Z,70.46
2022-08-19T05:40:25.650Z,70.20
2022-08-19T05:43:29.327Z,68.74
2022-08-19T05:46:31.663Z,67.80
2022-08-19T05:49:35.259Z,65.97
2022-08-19T05:52:43.689Z,65.17
2022-08-19T05:55:48.419Z,64.02
2022-08-19T05:58:51.071Z,63.46
2022-08-19T06:01:56.665Z,63.08
2022-08-19T06:04:59.278Z,61.75
2022-08-19T06:08:01.950Z,60.39
2022-08-19T06:11:19.128Z,60.53
2022-08-19T06:14:27.857Z,59.56
2022-08-19T06:17:37.476Z,59.15
2022-08-19T06:20:55.151Z,59.17
2022-08-19T06:24:07.279Z,59.09
2022-08-19T06:27:10.020Z,58.30
2022-08-19T06:30:13.413Z,57.14
2022-08-19T06:33:15.829Z,56.55
2022-08-19T06:36:35.089Z,55.66
2022-08-19T06:39:41.388Z,55.34
2022-08-19T06:42:50.225Z,54.19
2022-08-19T06:45:58.017Z,53.02
2022-08-19T06:49:01.743Z,51.79
2022-08-19T06:52:05.724Z,52.06
2022-08-19T06:55:08.439Z,52.23
2022-08-19T06:58:11.320Z,52.08
2022-08-19T07:01:13.792Z,51.82
2022-08-19T07:04:19.184Z,51.35
2022-08-19T07:07:22.093Z,50.70
2022-08-19T07:10:25.793Z,48.62
2022-08-19T07:13:28.226Z,48.18
2022-08-19T07:16:31.015Z,47.20
2022-08-19T07:19:34.942Z,46.06
2022-08-19T07:22:39.020Z,46.78
2022-08-19T07:25:41.443Z,47.54
2022-08-19T07:28:46.033Z,45.39
2022-08-19T07:31:57.410Z,43.44
2022-08-19T07:35:04.401Z,42.28
2022-08-19T07:38:06.800Z,40.57
2022-08-19T07:41:16.211Z,41.41
2022-08-19T07:44:21.123Z,42.68
2022-08-19T07:47:49.333Z,40.59
2022-08-19T07:50:46.427Z,40.58
2022-08-19T07:53:51.529Z,40.94
2022-08-19T07:56:54.305Z,38.71
2022-08-19T08:00:00.955Z,38.45
2022-08-19T08:03:03.356Z,38.67
2022-08-19T08:06:24.961Z,37.65
2022-08-19T08:09:34.831Z,38.34
2022-08-19T08:12:44.428Z,36.07
2022-08-19T08:16:10.194Z,36.64
2022-08-19T08:19:25.915Z,36.16
2022-08-19T08:22:48.259Z,35.30
2022-08-19T08:25:58.015Z,34.15
2022-08-19T08:29:00.518Z,33.10
2022-08-19T08:32:14.276Z,32.55
2022-08-19T08:35:21.089Z,34.09
2022-08-19T08:38:23.888Z,32.53
2022-08-19T08:41:59.139Z,30.73
2022-08-19T08:45:07.588Z,30.78
2022-08-19T08:48:54.462Z,30.83
2022-08-19T08:52:24.737Z,30.94
2022-08-19T08:55:36.791Z,30.44
2022-08-19T08:59:08.961Z,30.11
2022-08-19T09:02:11.369Z,30.16
2022-08-19T09:05:16.837Z,28.93
2022-08-19T09:08:25.076Z,28.81
2022-08-19T09:11:42.807Z,29.73
2022-08-19T09:15:06.527Z,28.32
2022-08-19T09:18:18.155Z,29.33
2022-08-19T09:21:30.346Z,29.40
2022-08-19T09:24:36.860Z,28.89
2022-08-19T09:27:43.738Z,28.81
2022-08-19T09:30:46.272Z,29.42
2022-08-19T09:33:49.415Z,28.82
2022-08-19T09:36:55.746Z,28.84
2022-08-19T09:39:58.816Z,29.44
2022-08-19T09:43:09.874Z,28.50
2022-08-19T09:46:15.769Z,28.89
2022-08-19T09:49:22.782Z,28.95
2022-08-19T09:52:32.653Z,28.87
2022-08-19T09:55:35.373Z,28.47
2022-08-19T09:58:38.491Z,29.07
2022-08-19T10:01:41.365Z,28.47
2022-08-19T10:05:02.431Z,29.60
2022-08-19T10:08:04.869Z,29.19
2022-08-19T10:11:28.840Z,28.01
2022-08-19T10:14:40.483Z,27.82
2022-08-19T10:17:47.603Z,27.31
2022-08-19T10:21:09.577Z,27.36
2022-08-19T10:24:14.076Z,27.22
2022-08-19T10:27:16.634Z,28.88
2022-08-19T10:30:20.126Z,28.19
2022-08-19T10:33:39.078Z,27.79
2022-08-19T10:36:53.852Z,27.91
2022-08-19T10:39:59.174Z,27.00
2022-08-19T10:43:01.517Z,27.79
2022-08-19T10:46:05.374Z,26.98
2022-08-19T10:49:12.516Z,26.30
2022-08-19T10:52:33.344Z,25.95
2022-08-19T10:55:55.015Z,25.84
2022-08-19T10:58:59.026Z,26.54
2022-08-19T11:02:03.130Z,27.08
2022-08-19T11:05:12.372Z,26.84
2022-08-19T11:08:23.150Z,27.11
2022-08-19T11:11:27.301Z,27.94
2022-08-19T11:14:32.201Z,28.87
2022-08-19T11:17:37.081Z,28.74
2022-08-19T11:20:39.451Z,29.21
2022-08-19T11:23:42.133Z,29.25
2022-08-19T11:26:45.818Z,29.53
2022-08-19T11:29:48.290Z,29.10
2022-08-19T11:32:50.615Z,28.07
2022-08-19T11:35:54.441Z,27.48
2022-08-19T11:38:56.846Z,26.63
2022-08-19T11:42:25.151Z,26.19
2022-08-19T11:45:29.689Z,26.66
2022-08-19T11:48:32.118Z,26.62
2022-08-19T11:51:34.919Z,26.38
2022-08-19T11:54:37.404Z,25.16
2022-08-19T11:57:41.891Z,25.02
2022-08-19T12:00:46.319Z,24.75
2022-08-19T12:03:50.861Z,24.24
2022-08-19T12:06:54.150Z,26.06
2022-08-19T12:09:56.475Z,28.01
2022-08-19T12:12:59.171Z,31.12
2022-08-19T12:16:02.806Z,30.28
2022-08-19T12:19:06.478Z,29.71
2022-08-19T12:22:08.873Z,29.59
2022-08-19T12:25:12.251Z,29.92
2022-08-19T12:28:14.645Z,29.69
2022-08-19T12:31:17.609Z,29.76
2022-08-19T12:34:22.152Z,30.12
2022-08-19T12:37:24.672Z,31.09
2022-08-19T12:40:27.568Z,30.05
2022-08-19T12:43:31.392Z,29.66
2022-08-19T12:46:33.718Z,29.38
2022-08-19T12:49:54.591Z,30.27
2022-08-19T12:52:58.763Z,29.81
2022-08-19T12:56:01.388Z,29.71
2022-08-19T12:59:05.743Z,28.94
2022-08-19T13:02:08.976Z,29.08
2022-08-19T13:05:13.801Z,29.50
2022-08-19T13:08:16.375Z,29.71
2022-08-19T13:11:21.289Z,31.78
2022-08-19T13:14:24.094Z,33.03
2022-08-19T13:17:26.485Z,35.61
2022-08-19T13:20:29.171Z,36.54
2022-08-19T13:23:32.093Z,37.10
2022-08-19T13:26:34.651Z,37.70
2022-08-19T13:29:55.779Z,38.68
2022-08-19T13:33:16.030Z,38.35
2022-08-19T13:36:18.722Z,37.61
2022-08-19T13:39:21.655Z,36.98
2022-08-19T13:42:26.412Z,35.44
2022-08-19T13:45:30.720Z,34.97
2022-08-19T13:48:33.118Z,34.20
2022-08-19T13:51:38.479Z,33.69
2022-08-19T13:54:42.546Z,34.20
2022-08-19T13:57:45.143Z,33.70
2022-08-19T14:00:48.571Z,33.74
2022-08-19T14:03:51.127Z,33.43
2022-08-19T14:06:53.466Z,34.27
2022-08-19T14:09:55.981Z,33.75
2022-08-19T14:13:01.265Z,34.98
2022-08-19T14:16:10.920Z,35.02
2022-08-19T14:19:13.230Z,33.95
2022-08-19T14:22:15.779Z,34.04
2022-08-19T14:25:27.622Z,34.42
2022-08-19T14:28:31.308Z,35.39
2022-08-19T14:31:33.652Z,35.94
2022-08-19T14:34:38.467Z,36.38
2022-08-19T14:37:45.283Z,35.76
2022-08-19T14:40:49.958Z,35.77
2022-08-19T14:43:54.032Z,36.21
2022-08-19T14:46:56.447Z,36.68
2022-08-19T14:49:59.904Z,36.62
2022-08-19T14:53:11.911Z,37.56
2022-08-19T14:56:19.427Z,37.83
2022-08-19T14:59:22.226Z,38.49
2022-08-19T15:02:35.034Z,39.13
2022-08-19T15:05:37.846Z,39.36
2022-08-19T15:08:42.579Z,40.04
2022-08-19T15:11:45.059Z,40.55
2022-08-19T15:14:51.067Z,40.48
2022-08-19T15:18:03.222Z,41.49
2022-08-19T15:21:05.994Z,41.70
2022-08-19T15:24:10.199Z,41.59
2022-08-19T15:27:13.883Z,42.18
2022-08-19T15:30:24.794Z,41.88
2022-08-19T15:33:27.147Z,42.12
2022-08-19T15:36:29.692Z,42.38
2022-08-19T15:39:33.237Z,43.07
2022-08-19T15:42:42.447Z,43.29
2022-08-19T15:45:49.297Z,43.37
2022-08-19T15:48:56.013Z,44.26
2022-08-19T15:52:02.340Z,44.90
2022-08-19T15:55:07.627Z,44.86
2022-08-19T15:58:32.846Z,45.15
2022-08-19T16:01:53.977Z,45.50
2022-08-19T16:05:15.990Z,45.56
2022-08-19T16:08:18.706Z,45.93
2022-08-19T16:11:29.258Z,45.58
2022-08-19T16:14:35.061Z,46.50
2022-08-19T16:17:37.571Z,45.69
2022-08-19T16:20:40.056Z,45.72
2022-08-19T16:23:42.728Z,46.19
2022-08-19T16:26:46.420Z,47.57
2022-08-19T16:29:48.759Z,50.44
2022-08-19T16:32:51.315Z,52.56
2022-08-19T16:36:00.118Z,55.63
2022-08-19T16:39:04.324Z,64.77
2022-08-19T16:42:08.953Z,68.12
2022-08-19T16:45:11.461Z,74.26
2022-08-19T16:48:13.805Z,74.90
2022-08-19T16:51:16.542Z,73.69
2022-08-19T16:54:19.042Z,73.70
2022-08-19T16:57:23.870Z,73.64
2022-08-19T17:00:26.248Z,69.74
2022-08-19T17:03:36.338Z,68.27
2022-08-19T17:06:46.192Z,67.22
2022-08-19T17:09:48.599Z,66.43
2022-08-19T17:12:54.881Z,67.78
2022-08-19T17:15:57.700Z,68.61
2022-08-19T17:19:01.843Z,67.15
2022-08-19T17:22:04.357Z,69.12
2022-08-19T17:25:07.377Z,68.66
2022-08-19T17:28:14.779Z,68.54
2022-08-19T17:31:19.836Z,68.92
2022-08-19T17:34:22.367Z,66.31
2022-08-19T17:37:24.703Z,66.44
2022-08-19T17:40:29.197Z,67.21
2022-08-19T17:43:36.528Z,68.58
2022-08-19T17:46:41.522Z,68.94
2022-08-19T17:49:43.878Z,69.50
2022-08-19T17:52:46.329Z,69.30
2022-08-19T17:55:48.672Z,73.14
2022-08-19T17:59:00.007Z,72.82
2022-08-19T18:02:04.806Z,73.37
2022-08-19T18:05:07.414Z,73.64
2022-08-19T18:08:11.300Z,74.79
2022-08-19T18:11:13.728Z,73.44
2022-08-19T18:14:16.123Z,74.06
2022-08-19T18:17:19.398Z,73.01
2022-08-19T18:20:22.849Z,71.88
2022-08-19T18:23:44.450Z,66.82
2022-08-19T18:26:48.842Z,66.32
2022-08-19T18:29:51.627Z,64.76
2022-08-19T18:32:54.643Z,62.81
2022-08-19T18:35:57.081Z,62.87
2022-08-19T18:39:18.073Z,63.05
2022-08-19T18:42:39.500Z,62.68
2022-08-19T18:46:01.823Z,61.61
2022-08-19T18:49:05.296Z,62.62
2022-08-19T18:52:07.743Z,64.51
2022-08-19T18:55:10.360Z,65.33
2022-08-19T18:58:13.243Z,68.18
2022-08-19T19:01:22.539Z,65.71
2022-08-19T19:04:32.122Z,68.59
2022-08-19T19:07:35.887Z,69.86
2022-08-19T19:10:38.751Z,71.24
2022-08-19T19:13:41.479Z,73.92
2022-08-19T19:16:45.964Z,75.60
2022-08-19T19:19:49.406Z,76.09
2022-08-19T19:22:51.804Z,77.64
2022-08-19T19:25:58.504Z,78.00
2022-08-19T19:29:00.920Z,80.55
2022-08-19T19:32:05.595Z,83.44
2022-08-19T19:35:10.701Z,82.47
2022-08-19T19:38:13.161Z,82.83
2022-08-19T19:41:18.888Z,83.62
2022-08-19T19:44:29.883Z,84.64
2022-08-19T19:47:33.578Z,84.86
2022-08-19T19:50:36.006Z,85.26
2022-08-19T19:53:38.554Z,85.72
2022-08-19T19:56:48.662Z,86.95
2022-08-19T19:59:51.465Z,86.91
2022-08-19T20:02:55.350Z,87.17
2022-08-19T20:05:59.395Z,87.39
2022-08-19T20:09:11.026Z,88.45
2022-08-19T20:12:13.377Z,86.87
2022-08-19T20:15:15.807Z,86.36
2022-08-19T20:18:18.221Z,85.20
2022-08-19T20:21:21.184Z,84.62
2022-08-19T20:24:27.792Z,84.23
2022-08-19T20:27:31.135Z,83.82
2022-08-19T20:30:41.356Z,83.93
2022-08-19T20:33:49.459Z,83.95
2022-08-19T20:36:52.048Z,83.93
2022-08-19T20:39:54.533Z,83.86
2022-08-19T20:42:57.479Z,83.64
2022-08-19T20:46:02.583Z,84.42
2022-08-19T20:49:05.837Z,84.95
2022-08-19T20:52:08.587Z,84.14
2022-08-19T20:55:12.375Z,83.82
2022-08-19T20:58:16.364Z,83.83
2022-08-19T21:01:18.789Z,83.78
2022-08-19T21:04:21.913Z,84.11
2022-08-19T21:07:24.260Z,84.47
2022-08-19T21:10:42.500Z,84.01
2022-08-19T21:13:44.957Z,83.77
2022-08-19T21:16:47.458Z,83.37
2022-08-19T21:19:49.833Z,83.58
2022-08-19T21:22:52.275Z,84.00
2022-08-19T21:25:56.928Z,84.82
2022-08-19T21:28:59.366Z,84.91
2022-08-19T21:32:01.711Z,85.48
2022-08-19T21:35:04.753Z,84.75
2022-08-19T21:38:07.138Z,85.34
2022-08-19T21:41:09.644Z,84.99
2022-08-19T21:44:12.299Z,84.33
2022-08-19T21:47:15.001Z,84.21
2022-08-19T21:50:17.689Z,83.86
2022-08-19T21:53:22.844Z,84.33
2022-08-19T21:56:25.563Z,83.78
2022-08-19T21:59:28.143Z,83.90
2022-08-19T22:02:31.129Z,84.31
2022-08-19T22:05:34.410Z,84.42
2022-08-19T22:08:37.247Z,85.20
2022-08-19T22:11:39.993Z,85.77
2022-08-19T22:14:42.332Z,86.18
2022-08-19T22:17:44.876Z,85.97
2022-08-19T22:20:48.060Z,88.30
2022-08-19T22:23:50.483Z,87.87
2022-08-19T22:26:52.823Z,87.71
2022-08-19T22:29:55.566Z,86.38
2022-08-19T22:33:08.317Z,88.04
2022-08-19T22:36:10.989Z,87.19
2022-08-19T22:39:13.355Z,87.12
2022-08-19T22:42:20.143Z,86.87
2022-08-19T22:45:22.691Z,87.65
2022-08-19T22:48:28.379Z,88.17
2022-08-19T22:51:50.933Z,89.12
2022-08-19T22:54:56.919Z,89.60
2022-08-19T22:57:59.447Z,88.54
2022-08-19T23:01:01.995Z,89.93
2022-08-19T23:04:05.551Z,90.85
2022-08-19T23:07:09.375Z,91.22
2022-08-19T23:10:11.990Z,90.14
2022-08-19T23:13:17.502Z,90.15
2022-08-19T23:16:19.852Z,90.89
2022-08-19T23:19:22.971Z,90.74
2022-08-19T23:22:25.632Z,90.63
2022-08-19T23:25:30.462Z,90.59
2022-08-19T23:28:51.338Z,90.39
2022-08-19T23:31:53.853Z,90.28
2022-08-19T23:34:56.616Z,90.22
2022-08-19T23:38:01.209Z,89.91
2022-08-19T23:41:05.846Z,89.87
2022-08-19T23:44:14.919Z,89.78
2022-08-19T23:47:17.845Z,89.57
2022-08-19T23:50:22.136Z,90.20
2022-08-19T23:53:25.496Z,90.04
2022-08-19T23:56:27.950Z,89.99
2022-08-19T23:59:30.302Z,90.42
